Terminal Aerodrome Forecast
Issued by NWS

Home | Current Version | Previous Version | Text Only | Print | Product List | Glossary Off
Versions: 1 2 3 4 5 6 7 8 9 10 11 12 13 14 15 16 17 18 19

704
FTUS43 KBIS 152346
TAFDIK
TAF
KDIK 152346Z 1600/1624 11009KT P6SM SCT250
     FM160300 12013KT P6SM BKN250
     FM160700 13014G22KT P6SM BKN250
     FM161200 14014G19KT P6SM BKN120 BKN220
     FM161900 16014KT P6SM BKN250=

USA.gov is the U.S. government's official web portal to all federal, state and local government web resources and services.